sensor_id;sensor_type;location;lat;lon;timestamp;temperature;humidity
7000;DHT22;3540;53.242;10.408;2023-04-19T00:00:41;5.90;99.90
7000;DHT22;3540;53.242;10.408;2023-04-19T00:03:09;5.90;99.90
7000;DHT22;3540;53.242;10.408;2023-04-19T00:05:34;5.90;99.90
7000;DHT22;3540;53.242;10.408;2023-04-19T00:08:05;5.90;99.90
7000;DHT22;3540;53.242;10.408;2023-04-19T00:10:31;5.80;99.90
7000;DHT22;3540;53.242;10.408;2023-04-19T00:12:57;5.80;99.90
7000;DHT22;3540;53.242;10.408;2023-04-19T00:15:22;5.70;99.90
7000;DHT22;3540;53.242;10.408;2023-04-19T00:17:48;5.70;99.90
7000;DHT22;3540;53.242;10.408;2023-04-19T00:20:14;5.60;99.90
7000;DHT22;3540;53.242;10.408;2023-04-19T00:22:39;5.60;99.90
7000;DHT22;3540;53.242;10.408;2023-04-19T00:25:05;5.60;99.90
7000;DHT22;3540;53.242;10.408;2023-04-19T00:27:31;5.40;99.90
7000;DHT22;3540;53.242;10.408;2023-04-19T00:29:57;5.40;99.90
7000;DHT22;3540;53.242;10.408;2023-04-19T00:32:23;5.40;99.90
7000;DHT22;3540;53.242;10.408;2023-04-19T00:34:48;5.30;99.90
7000;DHT22;3540;53.242;10.408;2023-04-19T00:37:14;5.30;99.90
7000;DHT22;3540;53.242;10.408;2023-04-19T00:39:40;5.30;99.90
7000;DHT22;3540;53.242;10.408;2023-04-19T00:42:05;5.30;99.90
7000;DHT22;3540;53.242;10.408;2023-04-19T00:44:31;5.20;99.90
7000;DHT22;3540;53.242;10.408;2023-04-19T00:46:57;5.30;99.90
7000;DHT22;3540;53.242;10.408;2023-04-19T00:49:24;5.30;99.90
7000;DHT22;3540;53.242;10.408;2023-04-19T00:51:50;5.20;99.90
7000;DHT22;3540;53.242;10.408;2023-04-19T00:54:16;5.20;99.90
7000;DHT22;3540;53.242;10.408;2023-04-19T00:56:43;5.20;99.90
7000;DHT22;3540;53.242;10.408;2023-04-19T00:59:10;5.20;99.90
7000;DHT22;3540;53.242;10.408;2023-04-19T01:01:37;5.20;99.90
7000;DHT22;3540;53.242;10.408;2023-04-19T01:04:04;5.20;99.90
7000;DHT22;3540;53.242;10.408;2023-04-19T01:06:29;5.10;99.90
7000;DHT22;3540;53.242;10.408;2023-04-19T01:08:56;5.10;99.90
7000;DHT22;3540;53.242;10.408;2023-04-19T01:11:22;5.10;99.90
7000;DHT22;3540;53.242;10.408;2023-04-19T01:13:49;5.10;99.90
7000;DHT22;3540;53.242;10.408;2023-04-19T01:16:15;5.10;99.90
7000;DHT22;3540;53.242;10.408;2023-04-19T01:18:40;5.10;99.90
7000;DHT22;3540;53.242;10.408;2023-04-19T01:21:06;5.00;99.90
7000;DHT22;3540;53.242;10.408;2023-04-19T01:23:33;5.00;99.90
7000;DHT22;3540;53.242;10.408;2023-04-19T01:26:00;4.90;99.90
7000;DHT22;3540;53.242;10.408;2023-04-19T01:28:26;4.90;99.90
7000;DHT22;3540;53.242;10.408;2023-04-19T01:30:52;4.80;99.90
7000;DHT22;3540;53.242;10.408;2023-04-19T01:33:21;4.80;99.90
7000;DHT22;3540;53.242;10.408;2023-04-19T01:35:47;4.80;99.90
7000;DHT22;3540;53.242;10.408;2023-04-19T01:38:14;4.80;99.90
7000;DHT22;3540;53.242;10.408;2023-04-19T01:40:40;4.80;99.90
7000;DHT22;3540;53.242;10.408;2023-04-19T01:43:06;4.80;99.90
7000;DHT22;3540;53.242;10.408;2023-04-19T01:45:32;4.70;99.90
7000;DHT22;3540;53.242;10.408;2023-04-19T01:47:59;4.70;99.90
7000;DHT22;3540;53.242;10.408;2023-04-19T01:50:26;4.70;99.90
7000;DHT22;3540;53.242;10.408;2023-04-19T01:52:51;4.60;99.90
7000;DHT22;3540;53.242;10.408;2023-04-19T01:55:17;4.60;99.90
7000;DHT22;3540;53.242;10.408;2023-04-19T01:57:43;4.60;99.90
7000;DHT22;3540;53.242;10.408;2023-04-19T02:00:09;4.60;99.90
7000;DHT22;3540;53.242;10.408;2023-04-19T02:02:36;4.60;99.90
7000;DHT22;3540;53.242;10.408;2023-04-19T02:05:03;4.50;99.90
7000;DHT22;3540;53.242;10.408;2023-04-19T02:07:29;4.40;99.90
7000;DHT22;3540;53.242;10.408;2023-04-19T02:09:54;4.40;99.90
7000;DHT22;3540;53.242;10.408;2023-04-19T02:12:20;4.40;99.90
7000;DHT22;3540;53.242;10.408;2023-04-19T02:14:46;4.40;99.90
7000;DHT22;3540;53.242;10.408;2023-04-19T02:17:11;4.40;99.90
7000;DHT22;3540;53.242;10.408;2023-04-19T02:19:37;4.40;99.90
7000;DHT22;3540;53.242;10.408;2023-04-19T02:22:03;4.30;99.90
7000;DHT22;3540;53.242;10.408;2023-04-19T02:24:28;4.30;99.90
7000;DHT22;3540;53.242;10.408;2023-04-19T02:26:54;4.30;99.90
7000;DHT22;3540;53.242;10.408;2023-04-19T02:29:19;4.30;99.90
7000;DHT22;3540;53.242;10.408;2023-04-19T02:31:45;4.20;99.90
7000;DHT22;3540;53.242;10.408;2023-04-19T02:34:11;4.20;99.90
7000;DHT22;3540;53.242;10.408;2023-04-19T02:36:37;4.10;99.90
7000;DHT22;3540;53.242;10.408;2023-04-19T02:39:02;4.10;99.90
7000;DHT22;3540;53.242;10.408;2023-04-19T02:41:30;4.10;99.90
7000;DHT22;3540;53.242;10.408;2023-04-19T02:43:55;4.20;99.90
7000;DHT22;3540;53.242;10.408;2023-04-19T02:46:21;4.20;99.90
7000;DHT22;3540;53.242;10.408;2023-04-19T02:48:46;4.20;99.90
7000;DHT22;3540;53.242;10.408;2023-04-19T02:51:15;4.30;99.90
7000;DHT22;3540;53.242;10.408;2023-04-19T02:53:41;4.30;99.90
7000;DHT22;3540;53.242;10.408;2023-04-19T02:56:07;4.20;99.90
7000;DHT22;3540;53.242;10.408;2023-04-19T02:58:33;4.20;99.90
7000;DHT22;3540;53.242;10.408;2023-04-19T03:00:59;4.20;99.90
7000;DHT22;3540;53.242;10.408;2023-04-19T03:03:25;4.10;99.90
7000;DHT22;3540;53.242;10.408;2023-04-19T03:05:51;4.10;99.90
7000;DHT22;3540;53.242;10.408;2023-04-19T03:08:17;4.10;99.90
7000;DHT22;3540;53.242;10.408;2023-04-19T03:10:42;4.10;99.90
7000;DHT22;3540;53.242;10.408;2023-04-19T03:13:08;4.10;99.90
7000;DHT22;3540;53.242;10.408;2023-04-19T03:15:34;4.10;99.90
7000;DHT22;3540;53.242;10.408;2023-04-19T03:17:59;4.10;99.90
7000;DHT22;3540;53.242;10.408;2023-04-19T03:20:25;4.10;99.90
7000;DHT22;3540;53.242;10.408;2023-04-19T03:22:51;4.10;99.90
7000;DHT22;3540;53.242;10.408;2023-04-19T03:25:16;4.10;99.90
7000;DHT22;3540;53.242;10.408;2023-04-19T03:27:42;4.10;99.90
7000;DHT22;3540;53.242;10.408;2023-04-19T03:30:11;4.10;99.90
7000;DHT22;3540;53.242;10.408;2023-04-19T03:32:36;4.10;99.90
7000;DHT22;3540;53.242;10.408;2023-04-19T03:35:02;4.10;99.90
7000;DHT22;3540;53.242;10.408;2023-04-19T03:37:28;4.10;99.90
7000;DHT22;3540;53.242;10.408;2023-04-19T03:39:53;4.00;99.90
7000;DHT22;3540;53.242;10.408;2023-04-19T03:42:19;4.00;99.90
7000;DHT22;3540;53.242;10.408;2023-04-19T03:44:45;4.00;99.90
7000;DHT22;3540;53.242;10.408;2023-04-19T03:47:10;4.00;99.90
7000;DHT22;3540;53.242;10.408;2023-04-19T03:49:36;4.00;99.90
7000;DHT22;3540;53.242;10.408;2023-04-19T03:52:01;4.00;99.90
7000;DHT22;3540;53.242;10.408;2023-04-19T03:54:27;3.90;99.90
7000;DHT22;3540;53.242;10.408;2023-04-19T03:56:53;3.90;99.90
7000;DHT22;3540;53.242;10.408;2023-04-19T03:59:18;3.90;99.90
7000;DHT22;3540;53.242;10.408;2023-04-19T04:01:44;3.90;99.90
7000;DHT22;3540;53.242;10.408;2023-04-19T04:04:10;4.00;99.90
7000;DHT22;3540;53.242;10.408;2023-04-19T04:06:38;3.90;99.90
7000;DHT22;3540;53.242;10.408;2023-04-19T04:09:04;4.00;99.90
7000;DHT22;3540;53.242;10.408;2023-04-19T04:11:30;3.90;99.90
7000;DHT22;3540;53.242;10.408;2023-04-19T04:13:55;3.90;99.90
7000;DHT22;3540;53.242;10.408;2023-04-19T04:16:21;3.90;99.90
7000;DHT22;3540;53.242;10.408;2023-04-19T04:18:47;3.90;99.90
7000;DHT22;3540;53.242;10.408;2023-04-19T04:21:12;3.90;99.90
7000;DHT22;3540;53.242;10.408;2023-04-19T04:23:38;3.90;99.90
7000;DHT22;3540;53.242;10.408;2023-04-19T04:26:04;4.00;99.90
7000;DHT22;3540;53.242;10.408;2023-04-19T04:28:30;4.00;99.90
7000;DHT22;3540;53.242;10.408;2023-04-19T04:30:57;4.10;99.90
7000;DHT22;3540;53.242;10.408;2023-04-19T04:33:27;4.20;99.90
7000;DHT22;3540;53.242;10.408;2023-04-19T04:35:53;4.30;99.90
7000;DHT22;3540;53.242;10.408;2023-04-19T04:38:20;4.30;99.90
7000;DHT22;3540;53.242;10.408;2023-04-19T04:40:49;4.40;99.90
7000;DHT22;3540;53.242;10.408;2023-04-19T04:43:18;4.40;99.90
7000;DHT22;3540;53.242;10.408;2023-04-19T04:45:46;4.50;99.90
7000;DHT22;3540;53.242;10.408;2023-04-19T04:48:11;4.60;99.90
7000;DHT22;3540;53.242;10.408;2023-04-19T04:50:37;4.70;99.90
7000;DHT22;3540;53.242;10.408;2023-04-19T04:53:03;4.70;99.90
7000;DHT22;3540;53.242;10.408;2023-04-19T04:55:28;4.80;99.90
7000;DHT22;3540;53.242;10.408;2023-04-19T04:57:54;4.80;99.90
7000;DHT22;3540;53.242;10.408;2023-04-19T05:00:21;4.90;99.90
7000;DHT22;3540;53.242;10.408;2023-04-19T05:02:46;5.00;99.90
7000;DHT22;3540;53.242;10.408;2023-04-19T05:05:12;5.00;99.90
7000;DHT22;3540;53.242;10.408;2023-04-19T05:07:38;5.10;99.90
7000;DHT22;3540;53.242;10.408;2023-04-19T05:10:04;5.20;99.90
7000;DHT22;3540;53.242;10.408;2023-04-19T05:12:30;5.20;99.90
7000;DHT22;3540;53.242;10.408;2023-04-19T05:14:55;5.40;99.90
7000;DHT22;3540;53.242;10.408;2023-04-19T05:17:21;5.40;99.90
7000;DHT22;3540;53.242;10.408;2023-04-19T05:19:47;5.60;99.90
7000;DHT22;3540;53.242;10.408;2023-04-19T05:22:12;5.80;99.90
7000;DHT22;3540;53.242;10.408;2023-04-19T05:24:39;5.80;99.90
7000;DHT22;3540;53.242;10.408;2023-04-19T05:27:05;5.70;99.90
7000;DHT22;3540;53.242;10.408;2023-04-19T05:29:31;5.70;99.90
7000;DHT22;3540;53.242;10.408;2023-04-19T05:31:57;5.70;99.90
7000;DHT22;3540;53.242;10.408;2023-04-19T05:34:23;5.70;99.90
7000;DHT22;3540;53.242;10.408;2023-04-19T05:36:48;5.80;99.90
7000;DHT22;3540;53.242;10.408;2023-04-19T05:39:14;5.90;99.90
7000;DHT22;3540;53.242;10.408;2023-04-19T05:41:40;6.00;99.90
7000;DHT22;3540;53.242;10.408;2023-04-19T05:44:06;6.00;99.90
7000;DHT22;3540;53.242;10.408;2023-04-19T05:46:31;6.10;99.90
7000;DHT22;3540;53.242;10.408;2023-04-19T05:48:57;6.20;99.90
7000;DHT22;3540;53.242;10.408;2023-04-19T05:51:23;6.30;99.90
7000;DHT22;3540;53.242;10.408;2023-04-19T05:53:48;6.40;99.90
7000;DHT22;3540;53.242;10.408;2023-04-19T05:56:14;6.50;99.90
7000;DHT22;3540;53.242;10.408;2023-04-19T05:58:40;6.60;99.90
7000;DHT22;3540;53.242;10.408;2023-04-19T06:01:05;6.70;99.90
7000;DHT22;3540;53.242;10.408;2023-04-19T06:03:31;6.80;99.90
7000;DHT22;3540;53.242;10.408;2023-04-19T06:06:00;6.90;99.90
7000;DHT22;3540;53.242;10.408;2023-04-19T06:08:26;6.90;99.90
7000;DHT22;3540;53.242;10.408;2023-04-19T06:10:51;6.90;99.90
7000;DHT22;3540;53.242;10.408;2023-04-19T06:13:18;7.00;99.90
7000;DHT22;3540;53.242;10.408;2023-04-19T06:15:45;7.10;99.90
7000;DHT22;3540;53.242;10.408;2023-04-19T06:18:11;7.10;99.90
7000;DHT22;3540;53.242;10.408;2023-04-19T06:20:38;7.20;99.90
7000;DHT22;3540;53.242;10.408;2023-04-19T06:23:05;7.20;99.90
7000;DHT22;3540;53.242;10.408;2023-04-19T06:25:30;7.30;99.90
7000;DHT22;3540;53.242;10.408;2023-04-19T06:27:56;7.50;99.90
7000;DHT22;3540;53.242;10.408;2023-04-19T06:30:21;7.50;99.90
7000;DHT22;3540;53.242;10.408;2023-04-19T06:32:47;7.60;99.90
7000;DHT22;3540;53.242;10.408;2023-04-19T06:35:13;7.70;99.90
7000;DHT22;3540;53.242;10.408;2023-04-19T06:37:39;7.60;99.90
7000;DHT22;3540;53.242;10.408;2023-04-19T06:40:05;7.70;99.90
7000;DHT22;3540;53.242;10.408;2023-04-19T06:42:33;7.70;99.90
7000;DHT22;3540;53.242;10.408;2023-04-19T06:44:58;7.80;99.90
7000;DHT22;3540;53.242;10.408;2023-04-19T06:47:24;7.90;99.90
7000;DHT22;3540;53.242;10.408;2023-04-19T06:49:50;8.10;99.90
7000;DHT22;3540;53.242;10.408;2023-04-19T06:52:16;8.20;99.90
7000;DHT22;3540;53.242;10.408;2023-04-19T06:54:41;8.20;99.90
7000;DHT22;3540;53.242;10.408;2023-04-19T06:57:07;8.40;99.90
7000;DHT22;3540;53.242;10.408;2023-04-19T06:59:32;8.40;99.90
7000;DHT22;3540;53.242;10.408;2023-04-19T07:01:59;8.20;99.90
7000;DHT22;3540;53.242;10.408;2023-04-19T07:04:25;8.20;99.90
7000;DHT22;3540;53.242;10.408;2023-04-19T07:06:51;8.20;99.90
7000;DHT22;3540;53.242;10.408;2023-04-19T07:09:17;8.30;99.90
7000;DHT22;3540;53.242;10.408;2023-04-19T07:11:43;8.40;99.90
7000;DHT22;3540;53.242;10.408;2023-04-19T07:14:08;8.60;99.90
7000;DHT22;3540;53.242;10.408;2023-04-19T07:16:34;8.60;99.90
7000;DHT22;3540;53.242;10.408;2023-04-19T07:18:59;8.60;99.90
7000;DHT22;3540;53.242;10.408;2023-04-19T07:21:25;8.80;99.90
7000;DHT22;3540;53.242;10.408;2023-04-19T07:23:52;9.00;99.90
7000;DHT22;3540;53.242;10.408;2023-04-19T07:26:18;9.10;99.90
7000;DHT22;3540;53.242;10.408;2023-04-19T07:28:44;9.30;99.90
7000;DHT22;3540;53.242;10.408;2023-04-19T07:31:17;9.50;99.90
7000;DHT22;3540;53.242;10.408;2023-04-19T07:33:43;9.60;99.90
7000;DHT22;3540;53.242;10.408;2023-04-19T07:36:09;9.70;99.90
7000;DHT22;3540;53.242;10.408;2023-04-19T07:38:35;9.50;99.90
7000;DHT22;3540;53.242;10.408;2023-04-19T07:41:02;9.60;99.90
7000;DHT22;3540;53.242;10.408;2023-04-19T07:43:29;9.80;99.90
7000;DHT22;3540;53.242;10.408;2023-04-19T07:45:54;9.70;99.90
7000;DHT22;3540;53.242;10.408;2023-04-19T07:48:20;9.80;99.90
7000;DHT22;3540;53.242;10.408;2023-04-19T07:50:46;10.10;99.90
7000;DHT22;3540;53.242;10.408;2023-04-19T07:53:11;10.20;99.90
7000;DHT22;3540;53.242;10.408;2023-04-19T07:55:37;10.20;99.90
7000;DHT22;3540;53.242;10.408;2023-04-19T07:58:02;10.30;99.90
7000;DHT22;3540;53.242;10.408;2023-04-19T08:00:28;10.20;99.90
7000;DHT22;3540;53.242;10.408;2023-04-19T08:03:02;10.50;99.90
7000;DHT22;3540;53.242;10.408;2023-04-19T08:05:28;10.40;99.90
7000;DHT22;3540;53.242;10.408;2023-04-19T08:07:54;10.50;99.90
7000;DHT22;3540;53.242;10.408;2023-04-19T08:10:20;10.30;99.90
7000;DHT22;3540;53.242;10.408;2023-04-19T08:12:45;10.50;99.90
7000;DHT22;3540;53.242;10.408;2023-04-19T08:15:12;10.60;99.90
7000;DHT22;3540;53.242;10.408;2023-04-19T08:17:40;10.70;99.90
7000;DHT22;3540;53.242;10.408;2023-04-19T08:20:09;10.70;99.90
7000;DHT22;3540;53.242;10.408;2023-04-19T08:22:35;10.60;99.90
7000;DHT22;3540;53.242;10.408;2023-04-19T08:25:01;10.60;99.90
7000;DHT22;3540;53.242;10.408;2023-04-19T08:27:27;10.90;99.90
7000;DHT22;3540;53.242;10.408;2023-04-19T08:29:52;11.00;99.90
7000;DHT22;3540;53.242;10.408;2023-04-19T08:32:18;11.00;99.90
7000;DHT22;3540;53.242;10.408;2023-04-19T08:34:43;11.10;99.90
7000;DHT22;3540;53.242;10.408;2023-04-19T08:37:10;11.20;99.90
7000;DHT22;3540;53.242;10.408;2023-04-19T08:39:36;11.20;99.90
7000;DHT22;3540;53.242;10.408;2023-04-19T08:42:07;11.30;99.90
7000;DHT22;3540;53.242;10.408;2023-04-19T08:44:33;11.60;99.90
7000;DHT22;3540;53.242;10.408;2023-04-19T08:47:00;11.60;99.90
7000;DHT22;3540;53.242;10.408;2023-04-19T08:49:27;11.40;99.90
7000;DHT22;3540;53.242;10.408;2023-04-19T08:51:54;11.50;99.90
7000;DHT22;3540;53.242;10.408;2023-04-19T08:54:22;11.60;99.90
7000;DHT22;3540;53.242;10.408;2023-04-19T08:56:49;11.60;99.90
7000;DHT22;3540;53.242;10.408;2023-04-19T08:59:14;11.70;99.90
7000;DHT22;3540;53.242;10.408;2023-04-19T09:01:40;11.60;99.90
7000;DHT22;3540;53.242;10.408;2023-04-19T09:04:06;11.80;99.90
7000;DHT22;3540;53.242;10.408;2023-04-19T09:06:37;12.30;99.90
7000;DHT22;3540;53.242;10.408;2023-04-19T09:09:21;12.30;99.90
7000;DHT22;3540;53.242;10.408;2023-04-19T09:11:48;12.10;99.90
7000;DHT22;3540;53.242;10.408;2023-04-19T09:14:16;11.80;99.90
7000;DHT22;3540;53.242;10.408;2023-04-19T09:16:43;11.80;99.90
7000;DHT22;3540;53.242;10.408;2023-04-19T09:19:09;12.10;99.90
7000;DHT22;3540;53.242;10.408;2023-04-19T09:21:37;12.00;99.90
7000;DHT22;3540;53.242;10.408;2023-04-19T09:24:03;11.60;99.90
7000;DHT22;3540;53.242;10.408;2023-04-19T09:26:29;11.50;99.90
7000;DHT22;3540;53.242;10.408;2023-04-19T09:29:05;11.80;99.90
7000;DHT22;3540;53.242;10.408;2023-04-19T09:31:34;11.70;99.90
7000;DHT22;3540;53.242;10.408;2023-04-19T09:34:17;11.50;99.90
7000;DHT22;3540;53.242;10.408;2023-04-19T09:36:43;11.60;99.90
7000;DHT22;3540;53.242;10.408;2023-04-19T09:39:09;11.70;99.90
7000;DHT22;3540;53.242;10.408;2023-04-19T09:41:49;11.80;99.90
7000;DHT22;3540;53.242;10.408;2023-04-19T09:44:15;11.80;99.90
7000;DHT22;3540;53.242;10.408;2023-04-19T09:46:41;12.00;99.90
7000;DHT22;3540;53.242;10.408;2023-04-19T09:51:51;12.00;99.90
7000;DHT22;3540;53.242;10.408;2023-04-19T09:54:18;11.70;99.90
7000;DHT22;3540;53.242;10.408;2023-04-19T09:56:45;11.80;99.90
7000;DHT22;3540;53.242;10.408;2023-04-19T09:59:11;12.00;99.90
7000;DHT22;3540;53.242;10.408;2023-04-19T10:01:56;11.80;99.90
7000;DHT22;3540;53.242;10.408;2023-04-19T10:04:25;11.90;99.90
7000;DHT22;3540;53.242;10.408;2023-04-19T10:06:53;12.10;99.90
7000;DHT22;3540;53.242;10.408;2023-04-19T10:09:20;12.30;99.90
7000;DHT22;3540;53.242;10.408;2023-04-19T10:11:51;11.80;99.90
7000;DHT22;3540;53.242;10.408;2023-04-19T10:14:27;12.00;99.90
7000;DHT22;3540;53.242;10.408;2023-04-19T10:16:57;12.40;99.90
7000;DHT22;3540;53.242;10.408;2023-04-19T10:19:24;12.10;99.90
7000;DHT22;3540;53.242;10.408;2023-04-19T10:21:51;12.00;99.90
7000;DHT22;3540;53.242;10.408;2023-04-19T10:24:17;11.90;99.90
7000;DHT22;3540;53.242;10.408;2023-04-19T10:27:06;11.90;99.90
7000;DHT22;3540;53.242;10.408;2023-04-19T10:29:55;11.80;99.90
7000;DHT22;3540;53.242;10.408;2023-04-19T10:32:28;11.90;99.90
7000;DHT22;3540;53.242;10.408;2023-04-19T10:34:54;11.80;99.90
7000;DHT22;3540;53.242;10.408;2023-04-19T10:37:24;12.10;99.90
7000;DHT22;3540;53.242;10.408;2023-04-19T10:39:50;11.90;99.90
7000;DHT22;3540;53.242;10.408;2023-04-19T10:42:16;12.00;99.90
7000;DHT22;3540;53.242;10.408;2023-04-19T10:47:46;12.10;99.90
7000;DHT22;3540;53.242;10.408;2023-04-19T10:50:16;12.20;99.90
7000;DHT22;3540;53.242;10.408;2023-04-19T10:52:41;12.40;99.90
7000;DHT22;3540;53.242;10.408;2023-04-19T10:55:07;12.40;99.90
7000;DHT22;3540;53.242;10.408;2023-04-19T11:00:31;12.40;99.90
7000;DHT22;3540;53.242;10.408;2023-04-19T11:06:16;12.60;99.90
7000;DHT22;3540;53.242;10.408;2023-04-19T11:08:43;12.50;99.90
7000;DHT22;3540;53.242;10.408;2023-04-19T11:11:09;12.20;99.90
7000;DHT22;3540;53.242;10.408;2023-04-19T11:13:36;12.40;99.90
7000;DHT22;3540;53.242;10.408;2023-04-19T11:16:07;12.50;99.90
7000;DHT22;3540;53.242;10.408;2023-04-19T11:18:32;12.50;99.90
7000;DHT22;3540;53.242;10.408;2023-04-19T11:20:58;12.30;99.90
7000;DHT22;3540;53.242;10.408;2023-04-19T11:23:25;12.40;99.90
7000;DHT22;3540;53.242;10.408;2023-04-19T11:25:52;12.30;99.90
7000;DHT22;3540;53.242;10.408;2023-04-19T11:28:18;12.60;99.90
7000;DHT22;3540;53.242;10.408;2023-04-19T11:30:43;12.60;99.90
7000;DHT22;3540;53.242;10.408;2023-04-19T11:33:11;12.60;99.90
7000;DHT22;3540;53.242;10.408;2023-04-19T11:35:37;12.70;99.90
7000;DHT22;3540;53.242;10.408;2023-04-19T11:38:03;12.20;99.90
7000;DHT22;3540;53.242;10.408;2023-04-19T11:40:32;12.30;99.90
7000;DHT22;3540;53.242;10.408;2023-04-19T11:42:59;12.20;99.90
7000;DHT22;3540;53.242;10.408;2023-04-19T11:45:26;12.70;99.90
7000;DHT22;3540;53.242;10.408;2023-04-19T11:47:53;12.70;99.90
7000;DHT22;3540;53.242;10.408;2023-04-19T11:55:37;12.50;99.90
7000;DHT22;3540;53.242;10.408;2023-04-19T11:58:06;12.30;99.90
7000;DHT22;3540;53.242;10.408;2023-04-19T12:00:34;12.30;99.90
7000;DHT22;3540;53.242;10.408;2023-04-19T12:03:00;12.30;99.90
7000;DHT22;3540;53.242;10.408;2023-04-19T12:05:26;12.30;99.90
7000;DHT22;3540;53.242;10.408;2023-04-19T12:08:01;12.60;99.90
7000;DHT22;3540;53.242;10.408;2023-04-19T12:10:29;12.70;99.90
7000;DHT22;3540;53.242;10.408;2023-04-19T12:12:55;12.40;99.90
7000;DHT22;3540;53.242;10.408;2023-04-19T12:15:21;12.20;99.90
7000;DHT22;3540;53.242;10.408;2023-04-19T12:18:00;12.20;99.90
7000;DHT22;3540;53.242;10.408;2023-04-19T12:20:30;12.40;99.90
7000;DHT22;3540;53.242;10.408;2023-04-19T12:22:55;12.20;99.90
7000;DHT22;3540;53.242;10.408;2023-04-19T12:25:21;12.40;99.90
7000;DHT22;3540;53.242;10.408;2023-04-19T12:27:46;12.30;99.90
7000;DHT22;3540;53.242;10.408;2023-04-19T12:30:12;12.30;99.90
7000;DHT22;3540;53.242;10.408;2023-04-19T12:32:38;12.30;99.90
7000;DHT22;3540;53.242;10.408;2023-04-19T12:35:04;12.80;99.90
7000;DHT22;3540;53.242;10.408;2023-04-19T12:37:29;12.60;99.90
7000;DHT22;3540;53.242;10.408;2023-04-19T12:39:55;12.30;99.90
7000;DHT22;3540;53.242;10.408;2023-04-19T12:42:21;12.50;99.90
7000;DHT22;3540;53.242;10.408;2023-04-19T12:44:46;12.40;99.90
7000;DHT22;3540;53.242;10.408;2023-04-19T12:47:12;12.40;99.90
7000;DHT22;3540;53.242;10.408;2023-04-19T12:49:37;12.50;99.90
7000;DHT22;3540;53.242;10.408;2023-04-19T12:52:04;12.40;99.90
7000;DHT22;3540;53.242;10.408;2023-04-19T12:54:29;12.60;99.90
7000;DHT22;3540;53.242;10.408;2023-04-19T12:56:55;12.70;99.90
7000;DHT22;3540;53.242;10.408;2023-04-19T12:59:21;12.50;99.90
7000;DHT22;3540;53.242;10.408;2023-04-19T13:01:48;12.50;99.90
7000;DHT22;3540;53.242;10.408;2023-04-19T13:04:13;12.50;99.90
7000;DHT22;3540;53.242;10.408;2023-04-19T13:06:39;12.70;99.90
7000;DHT22;3540;53.242;10.408;2023-04-19T13:09:05;12.70;99.90
7000;DHT22;3540;53.242;10.408;2023-04-19T13:11:31;13.20;99.90
7000;DHT22;3540;53.242;10.408;2023-04-19T13:13:57;12.80;99.90
7000;DHT22;3540;53.242;10.408;2023-04-19T13:16:22;12.60;99.90
7000;DHT22;3540;53.242;10.408;2023-04-19T13:18:48;12.50;99.90
7000;DHT22;3540;53.242;10.408;2023-04-19T13:21:15;12.60;99.90
7000;DHT22;3540;53.242;10.408;2023-04-19T13:23:42;12.40;99.90
7000;DHT22;3540;53.242;10.408;2023-04-19T13:26:08;12.70;99.90
7000;DHT22;3540;53.242;10.408;2023-04-19T13:28:34;12.70;99.90
7000;DHT22;3540;53.242;10.408;2023-04-19T13:31:00;12.60;99.90
7000;DHT22;3540;53.242;10.408;2023-04-19T13:33:26;12.40;99.90
7000;DHT22;3540;53.242;10.408;2023-04-19T13:35:51;12.40;99.90
7000;DHT22;3540;53.242;10.408;2023-04-19T13:38:17;12.50;99.90
7000;DHT22;3540;53.242;10.408;2023-04-19T13:40:43;12.60;99.90
7000;DHT22;3540;53.242;10.408;2023-04-19T13:43:09;12.50;99.90
7000;DHT22;3540;53.242;10.408;2023-04-19T13:45:35;12.80;99.90
7000;DHT22;3540;53.242;10.408;2023-04-19T13:48:00;12.90;99.90
7000;DHT22;3540;53.242;10.408;2023-04-19T13:50:27;12.10;99.90
7000;DHT22;3540;53.242;10.408;2023-04-19T13:52:53;12.10;99.90
7000;DHT22;3540;53.242;10.408;2023-04-19T13:55:19;12.40;99.90
7000;DHT22;3540;53.242;10.408;2023-04-19T13:57:44;12.60;99.90
7000;DHT22;3540;53.242;10.408;2023-04-19T14:00:10;12.70;99.90
7000;DHT22;3540;53.242;10.408;2023-04-19T14:02:36;12.60;99.90
7000;DHT22;3540;53.242;10.408;2023-04-19T14:05:02;12.70;99.90
7000;DHT22;3540;53.242;10.408;2023-04-19T14:07:28;12.70;99.90
7000;DHT22;3540;53.242;10.408;2023-04-19T14:09:54;12.80;99.90
7000;DHT22;3540;53.242;10.408;2023-04-19T14:12:20;12.80;99.90
7000;DHT22;3540;53.242;10.408;2023-04-19T14:14:45;13.00;99.90
7000;DHT22;3540;53.242;10.408;2023-04-19T14:17:11;12.60;99.90
7000;DHT22;3540;53.242;10.408;2023-04-19T14:19:36;12.40;99.90
7000;DHT22;3540;53.242;10.408;2023-04-19T14:22:02;12.60;99.90
7000;DHT22;3540;53.242;10.408;2023-04-19T14:24:28;12.80;99.90
7000;DHT22;3540;53.242;10.408;2023-04-19T14:26:53;12.70;99.90
7000;DHT22;3540;53.242;10.408;2023-04-19T14:29:19;12.80;99.90
7000;DHT22;3540;53.242;10.408;2023-04-19T14:31:44;12.80;99.90
7000;DHT22;3540;53.242;10.408;2023-04-19T14:34:10;12.80;99.90
7000;DHT22;3540;53.242;10.408;2023-04-19T14:36:36;12.70;99.90
7000;DHT22;3540;53.242;10.408;2023-04-19T14:39:01;12.80;99.90
7000;DHT22;3540;53.242;10.408;2023-04-19T14:41:27;12.90;99.90
7000;DHT22;3540;53.242;10.408;2023-04-19T14:43:52;12.90;99.90
7000;DHT22;3540;53.242;10.408;2023-04-19T14:46:20;12.70;99.90
7000;DHT22;3540;53.242;10.408;2023-04-19T14:48:46;12.50;99.90
7000;DHT22;3540;53.242;10.408;2023-04-19T14:51:11;12.70;99.90
7000;DHT22;3540;53.242;10.408;2023-04-19T14:53:37;12.60;99.90
7000;DHT22;3540;53.242;10.408;2023-04-19T14:56:04;12.70;99.90
7000;DHT22;3540;53.242;10.408;2023-04-19T14:58:30;12.80;99.90
7000;DHT22;3540;53.242;10.408;2023-04-19T15:00:56;12.70;99.90
7000;DHT22;3540;53.242;10.408;2023-04-19T15:03:22;12.20;99.90
7000;DHT22;3540;53.242;10.408;2023-04-19T15:05:47;12.20;99.90
7000;DHT22;3540;53.242;10.408;2023-04-19T15:08:13;12.40;99.90
7000;DHT22;3540;53.242;10.408;2023-04-19T15:10:38;12.40;99.90
7000;DHT22;3540;53.242;10.408;2023-04-19T15:13:04;12.50;99.90
7000;DHT22;3540;53.242;10.408;2023-04-19T15:15:30;12.60;99.90
7000;DHT22;3540;53.242;10.408;2023-04-19T15:17:55;12.80;99.90
7000;DHT22;3540;53.242;10.408;2023-04-19T15:20:21;12.60;99.90
7000;DHT22;3540;53.242;10.408;2023-04-19T15:22:47;12.60;99.90
7000;DHT22;3540;53.242;10.408;2023-04-19T15:25:12;12.90;99.90
7000;DHT22;3540;53.242;10.408;2023-04-19T15:27:38;13.00;99.90
7000;DHT22;3540;53.242;10.408;2023-04-19T15:30:04;12.90;99.90
7000;DHT22;3540;53.242;10.408;2023-04-19T15:32:30;12.60;99.90
7000;DHT22;3540;53.242;10.408;2023-04-19T15:34:58;13.00;99.90
7000;DHT22;3540;53.242;10.408;2023-04-19T15:37:24;12.90;99.90
7000;DHT22;3540;53.242;10.408;2023-04-19T15:39:50;12.80;99.90
7000;DHT22;3540;53.242;10.408;2023-04-19T15:42:15;12.40;99.90
7000;DHT22;3540;53.242;10.408;2023-04-19T15:44:41;12.60;99.90
7000;DHT22;3540;53.242;10.408;2023-04-19T15:47:07;12.80;99.90
7000;DHT22;3540;53.242;10.408;2023-04-19T15:49:32;12.90;99.90
7000;DHT22;3540;53.242;10.408;2023-04-19T15:51:58;12.90;99.90
7000;DHT22;3540;53.242;10.408;2023-04-19T15:54:23;12.70;99.90
7000;DHT22;3540;53.242;10.408;2023-04-19T15:56:49;12.50;99.90
7000;DHT22;3540;53.242;10.408;2023-04-19T15:59:14;12.10;99.90
7000;DHT22;3540;53.242;10.408;2023-04-19T16:01:40;11.90;99.90
7000;DHT22;3540;53.242;10.408;2023-04-19T16:04:06;12.10;99.90
7000;DHT22;3540;53.242;10.408;2023-04-19T16:06:31;12.50;99.90